Terminal Aerodrome Forecast
Issued by NWS Kansas City/Pleasant Hill, MO

Home | Current Version | Previous Version | Text Only | Print | Product List | Glossary On
Versions: 1 2 3 4 5 6 7 8 9 10 11 12 13 14 15 16 17 18 19 20
000
FTUS43 KEAX 121000 AAA
TAFMCI
TAF AMD
KMCI 121028Z 1210/1306 02010KT P6SM OVC020
      TEMPO 1216/1220 -SHRA OVC015
     FM122000 01010KT P6SM BKN025
     FM130300 01004KT P6SM SKC=

USA.gov is the U.S. government's official web portal to all federal, state and local government web resources and services.